Time;durP1;ratioP1;P1;durP2;ratioP2;P2;SDS_P1;SDS_P2;PMS_P1;PMS_P2;Temp;Humidity;BMP_temperature;BMP_pressure;BME280_temperature;BME280_humidity;BME280_pressure;Samples;Min_cycle;Max_cycle;Signal;HPM_P1;HPM_P2
2022/09/07 00:01:55;;;;;;;12.85;3.80;;;;;;;;;;4939275;28;20070;-66
2022/09/07 00:04:20;;;;;;;13.90;3.60;;;;;;;;;;4939719;28;20043;-67
2022/09/07 00:06:46;;;;;;;11.10;3.72;;;;;;;;;;4942378;28;20051;-69
2022/09/07 00:09:12;;;;;;;8.95;4.13;;;;;;;;;;4945028;29;20122;-69
2022/09/07 00:11:38;;;;;;;12.15;3.83;;;;;;;;;;4945901;28;20621;-69
2022/09/07 00:14:04;;;;;;;12.18;3.92;;;;;;;;;;4944926;28;20059;-67
2022/09/07 00:16:31;;;;;;;11.85;3.35;;;;;;;;;;4943226;28;20138;-67
2022/09/07 00:19:00;;;;;;;9.85;3.50;;;;;;;;;;4942005;29;21083;-66
2022/09/07 00:21:26;;;;;;;10.05;3.40;;;;;;;;;;4947244;28;20072;-66
2022/09/07 00:23:53;;;;;;;13.30;3.50;;;;;;;;;;4946913;28;20043;-67
2022/09/07 00:26:22;;;;;;;9.02;3.30;;;;;;;;;;4947193;28;20546;-67
2022/09/07 00:28:49;;;;;;;8.93;3.60;;;;;;;;;;4946347;28;20058;-68
2022/09/07 00:31:21;;;;;;;13.68;4.10;;;;;;;;;;4948772;28;20193;-69
2022/09/07 00:33:48;;;;;;;13.60;4.30;;;;;;;;;;4949482;29;20061;-66
2022/09/07 00:36:15;;;;;;;11.48;4.35;;;;;;;;;;4946955;28;20465;-68
2022/09/07 00:38:41;;;;;;;11.57;4.20;;;;;;;;;;4941978;28;20051;-67
2022/09/07 00:41:07;;;;;;;10.85;4.15;;;;;;;;;;4943125;28;20055;-66
2022/09/07 00:43:46;;;;;;;10.85;4.20;;;;;;;;;;4944027;28;20043;-67
2022/09/07 00:46:23;;;;;;;8.50;3.83;;;;;;;;;;4943259;28;20273;-68
2022/09/07 00:48:59;;;;;;;9.23;3.30;;;;;;;;;;4942782;29;20071;-66
2022/09/07 00:51:38;;;;;;;8.32;2.95;;;;;;;;;;4945165;29;20051;-67
2022/09/07 00:54:10;;;;;;;9.43;3.35;;;;;;;;;;4944645;28;20055;-66
2022/09/07 00:56:40;;;;;;;7.10;3.30;;;;;;;;;;4944556;28;20464;-67
2022/09/07 00:59:08;;;;;;;12.68;2.90;;;;;;;;;;4941794;29;20289;-67
2022/09/07 01:01:34;;;;;;;12.93;3.20;;;;;;;;;;4942970;28;20083;-67
2022/09/07 01:04:02;;;;;;;8.30;3.40;;;;;;;;;;4945599;28;20661;-67
2022/09/07 01:06:33;;;;;;;15.38;3.67;;;;;;;;;;4940512;28;20051;-67
2022/09/07 01:09:03;;;;;;;6.97;3.13;;;;;;;;;;4940627;28;20130;-65
2022/09/07 01:11:31;;;;;;;9.77;2.75;;;;;;;;;;4942609;28;20063;-67
2022/09/07 01:13:57;;;;;;;10.75;2.60;;;;;;;;;;4944611;28;20051;-65
2022/09/07 01:16:48;;;;;;;8.00;3.10;;;;;;;;;;4945321;28;20047;-68
2022/09/07 01:19:42;;;;;;;6.32;2.80;;;;;;;;;;4943949;28;20051;-66
2022/09/07 01:22:49;;;;;;;7.32;2.70;;;;;;;;;;4948703;28;20090;-66
2022/09/07 01:25:18;;;;;;;7.68;2.60;;;;;;;;;;4936017;28;20055;-68
2022/09/07 01:28:05;;;;;;;8.45;3.17;;;;;;;;;;4938547;28;20572;-66
2022/09/07 01:30:36;;;;;;;5.28;2.60;;;;;;;;;;4934575;28;20090;-66
2022/09/07 01:33:13;;;;;;;6.75;3.17;;;;;;;;;;4934139;28;20052;-67
2022/09/07 01:35:57;;;;;;;10.18;2.90;;;;;;;;;;4938307;28;20477;-67
2022/09/07 01:38:46;;;;;;;7.38;3.00;;;;;;;;;;4924890;29;20063;-67
2022/09/07 01:41:44;;;;;;;9.45;2.80;;;;;;;;;;4930824;28;20469;-66
2022/09/07 01:44:25;;;;;;;5.75;2.28;;;;;;;;;;4933661;28;20110;-66
2022/09/07 01:47:22;;;;;;;13.55;2.65;;;;;;;;;;4937743;28;20055;-66
2022/09/07 01:50:01;;;;;;;6.45;2.20;;;;;;;;;;4933673;28;20055;-71
2022/09/07 01:52:36;;;;;;;7.90;2.38;;;;;;;;;;4939575;28;20047;-66
2022/09/07 01:55:10;;;;;;;8.75;2.28;;;;;;;;;;4924114;29;20146;-69
2022/09/07 01:57:42;;;;;;;4.97;2.35;;;;;;;;;;4939573;28;20070;-67
2022/09/07 02:00:11;;;;;;;9.02;2.58;;;;;;;;;;4916686;29;20059;-66
2022/09/07 02:02:54;;;;;;;7.15;2.17;;;;;;;;;;4942851;29;20141;-67
2022/09/07 02:05:24;;;;;;;5.53;2.13;;;;;;;;;;4942629;28;20057;-65
2022/09/07 02:08:03;;;;;;;5.65;2.30;;;;;;;;;;4942759;28;20054;-66
2022/09/07 02:10:54;;;;;;;7.85;2.63;;;;;;;;;;4939644;28;20047;-66
2022/09/07 02:13:34;;;;;;;7.68;2.47;;;;;;;;;;4936657;29;20225;-67
2022/09/07 02:16:13;;;;;;;5.22;2.08;;;;;;;;;;4942930;29;20122;-66
2022/09/07 02:18:46;;;;;;;11.60;2.38;;;;;;;;;;4941324;28;20138;-66
2022/09/07 02:21:16;;;;;;;5.50;2.50;;;;;;;;;;4944266;28;20158;-66
2022/09/07 02:23:49;;;;;;;9.77;2.30;;;;;;;;;;4942857;28;20110;-66
2022/09/07 02:26:26;;;;;;;6.57;2.45;;;;;;;;;;4945107;28;20047;-66
2022/09/07 02:28:53;;;;;;;9.68;2.45;;;;;;;;;;4941148;29;20461;-67
2022/09/07 02:31:19;;;;;;;6.57;3.00;;;;;;;;;;4942037;28;20051;-66
2022/09/07 02:33:45;;;;;;;9.75;2.65;;;;;;;;;;4942348;28;20064;-65
2022/09/07 02:36:14;;;;;;;9.55;2.92;;;;;;;;;;4944515;28;20296;-69
2022/09/07 02:38:40;;;;;;;9.88;2.75;;;;;;;;;;4941436;28;20106;-66
2022/09/07 02:41:46;;;;;;;9.90;3.10;;;;;;;;;;4943512;29;20130;-67
2022/09/07 02:44:19;;;;;;;7.55;3.05;;;;;;;;;;4943162;28;20059;-67
2022/09/07 02:46:59;;;;;;;9.00;3.03;;;;;;;;;;4942366;28;20419;-67
2022/09/07 02:49:38;;;;;;;9.90;3.20;;;;;;;;;;4934150;28;20154;-65
2022/09/07 02:52:13;;;;;;;10.20;2.97;;;;;;;;;;4942498;28;20059;-68
2022/09/07 02:54:51;;;;;;;6.53;2.60;;;;;;;;;;4943590;28;20425;-66
2022/09/07 02:57:43;;;;;;;12.15;2.80;;;;;;;;;;4942669;28;20043;-68
2022/09/07 03:00:25;;;;;;;9.45;2.95;;;;;;;;;;4937719;28;20473;-66
2022/09/07 03:03:17;;;;;;;10.77;2.83;;;;;;;;;;4941942;28;20137;-67
2022/09/07 03:05:51;;;;;;;8.32;3.05;;;;;;;;;;4939872;28;20085;-66
2022/09/07 03:08:39;;;;;;;7.80;2.95;;;;;;;;;;4943360;28;20444;-65
2022/09/07 03:11:06;;;;;;;13.65;3.50;;;;;;;;;;4941161;28;20062;-68
2022/09/07 03:13:32;;;;;;;10.40;3.88;;;;;;;;;;4942786;28;20047;-66
2022/09/07 03:15:58;;;;;;;9.48;3.42;;;;;;;;;;4939290;28;20174;-65
2022/09/07 03:18:26;;;;;;;10.55;3.95;;;;;;;;;;4941672;28;20061;-68
2022/09/07 03:20:52;;;;;;;10.40;3.53;;;;;;;;;;4942568;28;20047;-67
2022/09/07 03:23:17;;;;;;;14.43;3.38;;;;;;;;;;4944390;28;20066;-67
2022/09/07 03:25:44;;;;;;;8.45;3.55;;;;;;;;;;4944425;28;21233;-66
2022/09/07 03:28:10;;;;;;;9.80;3.42;;;;;;;;;;4944120;28;20059;-66
2022/09/07 03:30:40;;;;;;;8.63;2.80;;;;;;;;;;4942371;28;20051;-66
2022/09/07 03:33:06;;;;;;;10.35;2.70;;;;;;;;;;4941030;28;20137;-66
2022/09/07 03:35:32;;;;;;;7.90;2.78;;;;;;;;;;4940219;28;21006;-65
2022/09/07 03:37:57;;;;;;;14.95;3.70;;;;;;;;;;4941842;28;20581;-66
2022/09/07 03:40:24;;;;;;;11.18;2.95;;;;;;;;;;4943253;29;20061;-67
2022/09/07 03:42:49;;;;;;;13.43;2.90;;;;;;;;;;4944657;28;20135;-71
2022/09/07 03:45:15;;;;;;;8.27;3.10;;;;;;;;;;4946639;28;20114;-68
2022/09/07 03:47:42;;;;;;;11.43;2.58;;;;;;;;;;4945877;28;20517;-67
2022/09/07 03:50:09;;;;;;;7.72;2.70;;;;;;;;;;4943386;28;20417;-67
2022/09/07 03:52:35;;;;;;;6.82;2.67;;;;;;;;;;4944793;28;20134;-67
2022/09/07 03:55:02;;;;;;;9.70;3.10;;;;;;;;;;4948071;29;20051;-67
2022/09/07 03:57:28;;;;;;;13.23;2.60;;;;;;;;;;4945221;28;20130;-66
2022/09/07 03:59:53;;;;;;;6.55;2.20;;;;;;;;;;4945242;28;20047;-67
2022/09/07 04:02:19;;;;;;;9.48;2.92;;;;;;;;;;4944788;28;20126;-66
2022/09/07 04:04:45;;;;;;;8.38;2.83;;;;;;;;;;4947853;28;20138;-65
2022/09/07 04:07:12;;;;;;;11.27;2.70;;;;;;;;;;4943773;28;20516;-66
2022/09/07 04:09:38;;;;;;;9.13;3.00;;;;;;;;;;4939755;28;20067;-65
2022/09/07 04:12:03;;;;;;;6.57;2.90;;;;;;;;;;4944424;28;20106;-65
2022/09/07 04:14:29;;;;;;;10.02;2.60;;;;;;;;;;4945278;29;20241;-67
2022/09/07 04:16:55;;;;;;;9.23;2.92;;;;;;;;;;4948762;28;20171;-65
2022/09/07 04:19:21;;;;;;;9.63;2.75;;;;;;;;;;4941901;28;20508;-66
2022/09/07 04:21:47;;;;;;;9.63;2.90;;;;;;;;;;4945676;28;20058;-67
2022/09/07 04:24:15;;;;;;;11.13;2.45;;;;;;;;;;4941050;28;20539;-67
2022/09/07 04:26:42;;;;;;;8.57;2.60;;;;;;;;;;4946112;28;20063;-64
2022/09/07 04:29:09;;;;;;;6.35;2.47;;;;;;;;;;4941288;28;20547;-65
2022/09/07 04:31:36;;;;;;;5.93;2.10;;;;;;;;;;4946945;28;20414;-65
2022/09/07 04:34:02;;;;;;;7.05;2.40;;;;;;;;;;4945413;28;20039;-64
2022/09/07 04:36:28;;;;;;;8.20;2.40;;;;;;;;;;4946291;29;20039;-68
2022/09/07 04:39:03;;;;;;;9.05;2.60;;;;;;;;;;4941114;28;20051;-66
2022/09/07 04:41:30;;;;;;;7.55;2.53;;;;;;;;;;4945217;28;20094;-67
2022/09/07 04:43:59;;;;;;;12.45;2.90;;;;;;;;;;4946258;28;20110;-65
2022/09/07 04:46:32;;;;;;;11.88;3.15;;;;;;;;;;4946105;28;20051;-66
2022/09/07 04:49:07;;;;;;;9.18;3.30;;;;;;;;;;4941077;28;20106;-66
2022/09/07 04:51:34;;;;;;;12.60;3.22;;;;;;;;;;4945295;29;20078;-65
2022/09/07 04:54:02;;;;;;;7.68;3.20;;;;;;;;;;4945449;28;20086;-66
2022/09/07 04:56:27;;;;;;;11.63;3.00;;;;;;;;;;4943854;28;20043;-66
2022/09/07 04:58:54;;;;;;;6.22;2.45;;;;;;;;;;4939814;28;20066;-66
2022/09/07 05:01:22;;;;;;;17.98;3.20;;;;;;;;;;4942356;28;20047;-66
2022/09/07 05:03:48;;;;;;;10.05;3.08;;;;;;;;;;4926104;29;20928;-66
2022/09/07 05:06:15;;;;;;;7.32;2.50;;;;;;;;;;4943516;28;20097;-65
2022/09/07 05:08:46;;;;;;;9.02;2.65;;;;;;;;;;4942477;28;20125;-68
2022/09/07 05:11:14;;;;;;;6.20;2.88;;;;;;;;;;4945468;28;20059;-65
2022/09/07 05:13:40;;;;;;;9.45;2.50;;;;;;;;;;4957055;28;20059;-69
2022/09/07 05:16:09;;;;;;;6.53;2.38;;;;;;;;;;4945558;29;20574;-68
2022/09/07 05:18:35;;;;;;;5.65;2.03;;;;;;;;;;4941432;29;20512;-68
2022/09/07 05:21:13;;;;;;;9.85;2.65;;;;;;;;;;4943810;29;20087;-68
2022/09/07 05:23:40;;;;;;;7.72;1.90;;;;;;;;;;4945099;29;20143;-67
2022/09/07 05:26:07;;;;;;;6.60;2.30;;;;;;;;;;4946049;29;20098;-67
2022/09/07 05:28:34;;;;;;;9.48;2.03;;;;;;;;;;4940750;28;20050;-74
2022/09/07 05:31:12;;;;;;;5.60;2.30;;;;;;;;;;4940434;28;20398;-72
2022/09/07 05:33:38;;;;;;;11.75;2.15;;;;;;;;;;4943680;28;20506;-72
2022/09/07 05:36:06;;;;;;;4.53;1.77;;;;;;;;;;4941513;29;20051;-72
2022/09/07 05:38:35;;;;;;;5.90;1.92;;;;;;;;;;4938644;28;20043;-75
2022/09/07 05:41:13;;;;;;;5.28;1.92;;;;;;;;;;4942404;29;20504;-68
2022/09/07 05:43:40;;;;;;;9.05;2.25;;;;;;;;;;4943698;28;20066;-69
2022/09/07 05:46:07;;;;;;;6.07;1.67;;;;;;;;;;4946518;28;20058;-70
2022/09/07 05:48:33;;;;;;;10.63;2.15;;;;;;;;;;4944266;28;20076;-70
2022/09/07 05:50:59;;;;;;;11.40;2.30;;;;;;;;;;4942013;28;20062;-70
2022/09/07 05:53:25;;;;;;;6.63;2.30;;;;;;;;;;4941202;29;20047;-69
2022/09/07 05:55:51;;;;;;;10.27;2.10;;;;;;;;;;4943767;28;20122;-70
2022/09/07 05:58:17;;;;;;;9.07;3.22;;;;;;;;;;4945107;29;20058;-70
2022/09/07 06:00:44;;;;;;;17.25;3.80;;;;;;;;;;4939461;28;20042;-68
2022/09/07 06:03:10;;;;;;;11.23;3.92;;;;;;;;;;4944442;28;20126;-68
2022/09/07 06:05:36;;;;;;;12.38;4.18;;;;;;;;;;4943660;28;20514;-67
2022/09/07 06:08:02;;;;;;;15.63;5.53;;;;;;;;;;4941856;28;20054;-68
2022/09/07 06:10:33;;;;;;;16.10;5.60;;;;;;;;;;4937769;28;20039;-68
2022/09/07 06:12:59;;;;;;;13.15;4.85;;;;;;;;;;4938657;28;20039;-68
2022/09/07 06:15:24;;;;;;;14.32;3.88;;;;;;;;;;4945242;28;21767;-67
2022/09/07 06:17:50;;;;;;;10.90;3.10;;;;;;;;;;4932905;28;20050;-69
2022/09/07 06:20:16;;;;;;;12.85;3.10;;;;;;;;;;4936817;28;20051;-68
2022/09/07 06:22:42;;;;;;;11.35;3.40;;;;;;;;;;4945080;28;20139;-68
2022/09/07 06:25:08;;;;;;;9.75;3.25;;;;;;;;;;4949060;29;20043;-67
2022/09/07 06:27:34;;;;;;;13.07;3.25;;;;;;;;;;4946709;28;20063;-67
2022/09/07 06:30:00;;;;;;;12.48;2.42;;;;;;;;;;4941709;28;20460;-68
2022/09/07 06:32:25;;;;;;;14.10;3.05;;;;;;;;;;4941626;28;20135;-68
2022/09/07 06:34:52;;;;;;;18.55;2.70;;;;;;;;;;4943189;28;20051;-67
2022/09/07 06:37:18;;;;;;;16.35;3.10;;;;;;;;;;4944539;28;20050;-67
2022/09/07 06:39:43;;;;;;;11.23;2.95;;;;;;;;;;4948086;29;20051;-69
2022/09/07 06:42:09;;;;;;;11.70;3.03;;;;;;;;;;4943719;28;20048;-65
2022/09/07 06:44:35;;;;;;;15.35;3.35;;;;;;;;;;4938906;28;20051;-65
2022/09/07 06:47:01;;;;;;;15.30;2.83;;;;;;;;;;4944825;28;20183;-65
2022/09/07 06:49:27;;;;;;;13.32;2.50;;;;;;;;;;4943753;28;20047;-67
2022/09/07 06:51:53;;;;;;;14.45;2.70;;;;;;;;;;4948989;28;20059;-65
2022/09/07 06:54:19;;;;;;;21.38;3.25;;;;;;;;;;4948687;28;20114;-64
2022/09/07 06:56:45;;;;;;;18.02;3.10;;;;;;;;;;4938503;28;20065;-65
2022/09/07 06:59:11;;;;;;;40.03;6.13;;;;;;;;;;4946448;28;20182;-64
2022/09/07 07:01:37;;;;;;;18.08;3.83;;;;;;;;;;4943442;28;20493;-65
2022/09/07 07:04:03;;;;;;;17.17;3.05;;;;;;;;;;4945807;28;20074;-64
2022/09/07 07:06:36;;;;;;;26.13;3.08;;;;;;;;;;4941455;28;20501;-65
2022/09/07 07:09:04;;;;;;;11.40;2.88;;;;;;;;;;4945822;28;20060;-65
2022/09/07 07:11:30;;;;;;;33.58;4.93;;;;;;;;;;4943484;28;20106;-65
2022/09/07 07:13:56;;;;;;;19.10;3.40;;;;;;;;;;4939126;28;20055;-68
2022/09/07 07:16:23;;;;;;;10.07;3.03;;;;;;;;;;4948357;28;20043;-68
2022/09/07 07:18:53;;;;;;;8.75;3.05;;;;;;;;;;4950898;29;20047;-68
2022/09/07 07:21:19;;;;;;;8.48;2.47;;;;;;;;;;4953229;28;20161;-67
2022/09/07 07:23:49;;;;;;;20.13;3.25;;;;;;;;;;4945319;28;20149;-64
2022/09/07 07:26:20;;;;;;;14.13;2.72;;;;;;;;;;4955440;28;20130;-71
2022/09/07 07:28:49;;;;;;;16.75;3.00;;;;;;;;;;4948317;28;20455;-66
2022/09/07 07:31:16;;;;;;;14.27;3.47;;;;;;;;;;4948792;28;20039;-64
2022/09/07 07:33:42;;;;;;;15.23;3.50;;;;;;;;;;4945679;28;20052;-67
2022/09/07 07:36:11;;;;;;;19.13;3.97;;;;;;;;;;4955627;28;20126;-65
2022/09/07 07:38:39;;;;;;;17.67;3.35;;;;;;;;;;4945898;28;20059;-65
2022/09/07 07:41:05;;;;;;;14.50;3.35;;;;;;;;;;4942024;28;20427;-65
2022/09/07 07:43:31;;;;;;;9.35;2.97;;;;;;;;;;4935718;28;20478;-67
2022/09/07 07:45:58;;;;;;;20.77;2.83;;;;;;;;;;4947048;28;20304;-65
2022/09/07 07:48:25;;;;;;;15.02;3.17;;;;;;;;;;4947950;28;20051;-67
2022/09/07 07:51:03;;;;;;;19.08;5.00;;;;;;;;;;4953949;29;20051;-65
2022/09/07 07:53:32;;;;;;;21.23;3.60;;;;;;;;;;4939893;28;20471;-65
2022/09/07 07:55:58;;;;;;;16.77;3.22;;;;;;;;;;4949201;28;20062;-64
2022/09/07 07:58:28;;;;;;;14.07;3.25;;;;;;;;;;4952245;28;20493;-66
2022/09/07 08:00:59;;;;;;;16.20;2.88;;;;;;;;;;4946287;28;20062;-68
2022/09/07 08:03:25;;;;;;;11.85;2.80;;;;;;;;;;4946358;28;20070;-66
2022/09/07 08:05:51;;;;;;;14.32;3.15;;;;;;;;;;4944982;29;20093;-68
2022/09/07 08:08:17;;;;;;;15.18;3.28;;;;;;;;;;4949305;28;20106;-79
2022/09/07 08:10:44;;;;;;;15.10;3.17;;;;;;;;;;4953870;29;20051;-77
2022/09/07 08:13:10;;;;;;;20.25;3.15;;;;;;;;;;4956382;28;20048;-79
2022/09/07 08:15:43;;;;;;;9.82;2.90;;;;;;;;;;4939213;29;20123;-81
2022/09/07 08:18:11;;;;;;;13.20;3.60;;;;;;;;;;4937974;29;20068;-80
2022/09/07 08:20:39;;;;;;;13.93;3.15;;;;;;;;;;4944520;29;20050;-81
2022/09/07 08:23:06;;;;;;;15.85;3.03;;;;;;;;;;4938798;29;20043;-78
2022/09/07 08:25:33;;;;;;;14.07;3.65;;;;;;;;;;4943626;29;20107;-82
2022/09/07 08:27:59;;;;;;;14.40;3.13;;;;;;;;;;4941055;29;20359;-77
2022/09/07 08:30:25;;;;;;;12.65;3.10;;;;;;;;;;4940832;29;20051;-78
2022/09/07 08:32:51;;;;;;;18.52;3.58;;;;;;;;;;4944000;29;20055;-80
2022/09/07 08:35:17;;;;;;;10.02;2.75;;;;;;;;;;4938615;29;20054;-77
2022/09/07 08:37:42;;;;;;;12.88;2.90;;;;;;;;;;4936359;29;20048;-76
2022/09/07 08:40:18;;;;;;;13.77;2.70;;;;;;;;;;4936439;29;20048;-75
2022/09/07 08:43:03;;;;;;;16.48;3.10;;;;;;;;;;4937751;29;20056;-74
2022/09/07 08:45:37;;;;;;;8.77;2.50;;;;;;;;;;4932978;29;20091;-76
2022/09/07 08:48:04;;;;;;;13.23;2.25;;;;;;;;;;4928781;29;20476;-77
2022/09/07 08:50:50;;;;;;;13.80;2.40;;;;;;;;;;4928658;29;20557;-80
2022/09/07 08:53:18;;;;;;;11.10;3.17;;;;;;;;;;4943795;28;20115;-75
2022/09/07 08:55:56;;;;;;;10.25;2.30;;;;;;;;;;4934103;29;20047;-76
2022/09/07 08:58:46;;;;;;;10.45;2.75;;;;;;;;;;4936790;29;20043;-77
2022/09/07 09:01:21;;;;;;;14.48;2.40;;;;;;;;;;4938279;29;20043;-78
2022/09/07 09:03:48;;;;;;;15.75;2.90;;;;;;;;;;4938183;28;20254;-79
2022/09/07 09:06:44;;;;;;;11.20;2.60;;;;;;;;;;4922625;29;20052;-79
2022/09/07 09:09:41;;;;;;;7.45;2.60;;;;;;;;;;4926238;29;20063;-78
2022/09/07 09:12:06;;;;;;;13.48;2.55;;;;;;;;;;4926574;29;20051;-78
2022/09/07 09:14:33;;;;;;;7.70;2.50;;;;;;;;;;4931779;29;20054;-79
2022/09/07 09:17:26;;;;;;;19.05;4.40;;;;;;;;;;4947770;28;20480;-79
2022/09/07 09:20:15;;;;;;;14.23;3.27;;;;;;;;;;4945226;29;20044;-79
2022/09/07 09:22:42;;;;;;;10.18;3.03;;;;;;;;;;4942236;29;20322;-76
2022/09/07 09:25:14;;;;;;;9.98;3.08;;;;;;;;;;4940169;28;20271;-64
2022/09/07 09:27:40;;;;;;;11.98;2.85;;;;;;;;;;4926883;28;20052;-66
2022/09/07 09:30:13;;;;;;;15.10;2.95;;;;;;;;;;4943695;29;20050;-66
2022/09/07 09:32:41;;;;;;;13.43;2.80;;;;;;;;;;4941358;29;20427;-78
2022/09/07 09:35:18;;;;;;;12.90;2.88;;;;;;;;;;4952037;28;20043;-77
2022/09/07 09:37:45;;;;;;;17.13;2.90;;;;;;;;;;4952082;28;20056;-80
2022/09/07 09:40:35;;;;;;;5.70;2.25;;;;;;;;;;4956255;28;20047;-80
2022/09/07 09:43:16;;;;;;;10.77;2.45;;;;;;;;;;4957225;28;20446;-77
2022/09/07 09:45:45;;;;;;;14.50;3.42;;;;;;;;;;4965119;29;20054;-78
2022/09/07 09:48:19;;;;;;;16.45;3.08;;;;;;;;;;4953864;29;20051;-80
2022/09/07 09:50:54;;;;;;;15.63;2.78;;;;;;;;;;4944781;29;20077;-78
2022/09/07 09:53:28;;;;;;;10.13;2.65;;;;;;;;;;4955553;28;20152;-78
2022/09/07 09:55:55;;;;;;;8.93;2.45;;;;;;;;;;4955802;29;20051;-81
2022/09/07 09:58:39;;;;;;;11.00;2.60;;;;;;;;;;4956484;28;20062;-79
2022/09/07 10:01:19;;;;;;;9.68;2.67;;;;;;;;;;4963331;28;20078;-81
2022/09/07 10:03:45;;;;;;;8.30;2.53;;;;;;;;;;4962200;29;20327;-80
2022/09/07 10:06:14;;;;;;;9.02;2.15;;;;;;;;;;4957193;28;20135;-79
2022/09/07 10:08:53;;;;;;;14.60;2.58;;;;;;;;;;4960954;28;20051;-81
2022/09/07 10:11:39;;;;;;;12.15;2.38;;;;;;;;;;4969338;28;20066;-78
2022/09/07 10:14:18;;;;;;;12.43;2.80;;;;;;;;;;4957080;28;20058;-80
2022/09/07 10:16:45;;;;;;;36.67;7.80;;;;;;;;;;4950508;29;20131;-82
2022/09/07 10:19:34;;;;;;;11.15;2.85;;;;;;;;;;4972237;28;20039;-83
2022/09/07 10:22:19;;;;;;;10.57;3.13;;;;;;;;;;4969547;28;20053;-81
2022/09/07 10:24:45;;;;;;;16.35;3.40;;;;;;;;;;4956750;28;20051;-73
2022/09/07 10:27:28;;;;;;;17.45;4.45;;;;;;;;;;4957325;29;20155;-80
2022/09/07 10:29:54;;;;;;;34.20;8.52;;;;;;;;;;4946712;28;20094;-80
2022/09/07 10:32:42;;;;;;;43.35;9.40;;;;;;;;;;4954226;28;20412;-80
2022/09/07 10:35:40;;;;;;;15.88;3.03;;;;;;;;;;4952977;28;20134;-81
2022/09/07 10:38:19;;;;;;;45.53;9.32;;;;;;;;;;4961374;28;20403;-81
2022/09/07 10:40:57;;;;;;;14.65;3.00;;;;;;;;;;4966328;28;20066;-79
2022/09/07 10:43:42;;;;;;;40.17;9.20;;;;;;;;;;4967292;28;20039;-82
2022/09/07 10:46:14;;;;;;;23.73;7.68;;;;;;;;;;4971009;29;20055;-80
2022/09/07 10:49:11;;;;;;;10.32;3.00;;;;;;;;;;4966304;29;20055;-83
2022/09/07 10:52:11;;;;;;;24.27;6.95;;;;;;;;;;4953765;28;20043;-82
2022/09/07 10:54:52;;;;;;;17.00;4.03;;;;;;;;;;4944361;29;20575;-77
2022/09/07 10:57:40;;;;;;;15.05;3.65;;;;;;;;;;4965749;29;20102;-81
2022/09/07 11:00:20;;;;;;;13.93;3.55;;;;;;;;;;4963066;29;20050;-81
2022/09/07 11:03:03;;;;;;;13.40;3.50;;;;;;;;;;4962456;29;20075;-82
2022/09/07 11:05:44;;;;;;;11.20;3.63;;;;;;;;;;4960659;28;20089;-83
2022/09/07 11:08:41;;;;;;;33.92;5.75;;;;;;;;;;4946613;28;20149;-81
2022/09/07 11:11:33;;;;;;;10.35;3.30;;;;;;;;;;4949608;29;20045;-79
2022/09/07 11:14:08;;;;;;;13.00;3.67;;;;;;;;;;4949678;28;20047;-80
2022/09/07 11:16:38;;;;;;;10.57;3.30;;;;;;;;;;4953253;29;20570;-80
2022/09/07 11:19:44;;;;;;;12.68;2.50;;;;;;;;;;4958057;29;20047;-79
2022/09/07 11:22:35;;;;;;;8.57;2.78;;;;;;;;;;4939193;29;20513;-80
2022/09/07 11:25:37;;;;;;;16.42;3.28;;;;;;;;;;4960016;29;20051;-81
2022/09/07 11:28:19;;;;;;;19.58;2.88;;;;;;;;;;4956428;28;20465;-80
2022/09/07 11:30:48;;;;;;;16.60;2.75;;;;;;;;;;4942097;29;20055;-78
2022/09/07 11:33:22;;;;;;;11.25;2.65;;;;;;;;;;4955992;28;20066;-76
2022/09/07 11:36:14;;;;;;;13.23;2.63;;;;;;;;;;4948206;29;20046;-80
2022/09/07 11:39:05;;;;;;;10.13;3.17;;;;;;;;;;4956497;28;20112;-78
2022/09/07 11:41:41;;;;;;;11.52;2.30;;;;;;;;;;4952197;29;20039;-81
2022/09/07 11:44:29;;;;;;;13.55;2.53;;;;;;;;;;4953444;28;20046;-80
2022/09/07 11:47:04;;;;;;;15.27;4.00;;;;;;;;;;4949071;28;20245;-79
2022/09/07 11:49:30;;;;;;;7.03;2.83;;;;;;;;;;4950761;29;20090;-76
2022/09/07 11:52:20;;;;;;;15.43;5.10;;;;;;;;;;4952069;28;20074;-84
2022/09/07 11:54:59;;;;;;;8.57;2.92;;;;;;;;;;4947125;29;20063;-79
2022/09/07 11:57:52;;;;;;;13.98;3.58;;;;;;;;;;4946523;29;20047;-78
2022/09/07 12:00:22;;;;;;;10.80;4.78;;;;;;;;;;4958377;28;20118;-79
2022/09/07 12:03:17;;;;;;;13.63;4.13;;;;;;;;;;4956707;28;20129;-79
2022/09/07 12:06:01;;;;;;;12.60;4.60;;;;;;;;;;4950595;28;20047;-79
2022/09/07 12:09:04;;;;;;;11.88;3.22;;;;;;;;;;4955420;29;20051;-81
2022/09/07 12:11:52;;;;;;;9.02;3.60;;;;;;;;;;4956356;29;20226;-78
2022/09/07 12:14:30;;;;;;;12.45;3.33;;;;;;;;;;4956503;28;20517;-78
2022/09/07 12:17:14;;;;;;;9.82;2.75;;;;;;;;;;4960097;28;20057;-80
2022/09/07 12:19:41;;;;;;;8.15;2.72;;;;;;;;;;4948148;28;20048;-80
2022/09/07 12:22:21;;;;;;;9.75;3.10;;;;;;;;;;4953656;28;20050;-77
2022/09/07 12:24:51;;;;;;;9.30;2.88;;;;;;;;;;4949248;29;20078;-78
2022/09/07 12:27:21;;;;;;;8.90;2.53;;;;;;;;;;4956069;29;20078;-79
2022/09/07 12:29:49;;;;;;;7.93;2.67;;;;;;;;;;4955851;28;20127;-77
2022/09/07 12:33:03;;;;;;;9.43;2.95;;;;;;;;;;4954851;29;20065;-78
2022/09/07 12:35:29;;;;;;;5.40;2.60;;;;;;;;;;4955842;28;20043;-78
2022/09/07 12:37:56;;;;;;;9.48;2.50;;;;;;;;;;4954358;29;20126;-79
2022/09/07 12:40:28;;;;;;;7.65;2.72;;;;;;;;;;4953856;29;20050;-78
2022/09/07 12:43:12;;;;;;;7.72;2.85;;;;;;;;;;4955818;29;20058;-81
2022/09/07 12:45:38;;;;;;;9.25;2.47;;;;;;;;;;4954678;29;20078;-79
2022/09/07 12:48:04;;;;;;;11.77;3.05;;;;;;;;;;4951653;28;20055;-76
2022/09/07 12:50:35;;;;;;;15.52;2.80;;;;;;;;;;4950331;28;20042;-77
2022/09/07 12:53:13;;;;;;;8.43;2.47;;;;;;;;;;4952297;29;20106;-77
2022/09/07 12:56:18;;;;;;;7.18;2.00;;;;;;;;;;4952588;29;20062;-77
2022/09/07 12:59:06;;;;;;;8.13;2.15;;;;;;;;;;4943839;28;20102;-76
2022/09/07 13:01:40;;;;;;;3.30;1.92;;;;;;;;;;4951274;29;20047;-78
2022/09/07 13:04:16;;;;;;;8.80;2.35;;;;;;;;;;4942823;29;20047;-77
2022/09/07 13:07:13;;;;;;;8.15;2.20;;;;;;;;;;4952177;29;20069;-76
2022/09/07 13:09:40;;;;;;;9.25;1.90;;;;;;;;;;4959406;28;20059;-76
2022/09/07 13:12:43;;;;;;;9.93;2.42;;;;;;;;;;4953819;29;20509;-78
2022/09/07 13:15:33;;;;;;;7.15;2.30;;;;;;;;;;4919830;29;20047;-78
2022/09/07 13:17:59;;;;;;;6.90;2.13;;;;;;;;;;4952524;29;20078;-76
2022/09/07 13:20:30;;;;;;;9.73;2.33;;;;;;;;;;4953656;29;20081;-78
2022/09/07 13:23:18;;;;;;;4.03;1.67;;;;;;;;;;4953371;29;20047;-80
2022/09/07 13:25:47;;;;;;;5.72;2.00;;;;;;;;;;4962424;28;20183;-78
2022/09/07 13:28:42;;;;;;;5.57;1.80;;;;;;;;;;4944794;28;20047;-76
2022/09/07 13:31:47;;;;;;;6.70;1.92;;;;;;;;;;4953320;28;20560;-78
2022/09/07 13:34:31;;;;;;;5.68;2.00;;;;;;;;;;4958925;28;20066;-78
2022/09/07 13:36:58;;;;;;;7.30;2.25;;;;;;;;;;4960835;29;20051;-80
2022/09/07 13:39:24;;;;;;;5.03;2.03;;;;;;;;;;4958875;28;20043;-79
2022/09/07 13:41:53;;;;;;;5.18;2.05;;;;;;;;;;4959069;28;20744;-77
2022/09/07 13:44:26;;;;;;;8.35;2.35;;;;;;;;;;4962542;28;20047;-79
2022/09/07 13:47:07;;;;;;;4.60;1.63;;;;;;;;;;4952329;29;20873;-79
2022/09/07 13:50:05;;;;;;;8.55;1.88;;;;;;;;;;4957935;29;20055;-77
2022/09/07 13:53:04;;;;;;;5.38;1.40;;;;;;;;;;4955114;28;20511;-78
2022/09/07 13:55:42;;;;;;;6.13;1.80;;;;;;;;;;4952251;29;20047;-77
2022/09/07 13:58:16;;;;;;;5.95;1.70;;;;;;;;;;4952776;28;20051;-76
2022/09/07 14:00:51;;;;;;;4.03;1.58;;;;;;;;;;4951607;29;20047;-79
2022/09/07 14:03:17;;;;;;;7.95;1.80;;;;;;;;;;4946805;29;20175;-77
2022/09/07 14:05:42;;;;;;;3.72;1.63;;;;;;;;;;4952123;29;20129;-77
2022/09/07 14:08:28;;;;;;;18.40;1.90;;;;;;;;;;4953029;29;20054;-79
2022/09/07 14:10:54;;;;;;;5.70;1.80;;;;;;;;;;4951862;29;20262;-78
2022/09/07 14:13:20;;;;;;;5.05;1.85;;;;;;;;;;4947932;28;20248;-77
2022/09/07 14:15:48;;;;;;;4.35;1.23;;;;;;;;;;4943980;28;20585;-73
2022/09/07 14:18:24;;;;;;;4.40;1.60;;;;;;;;;;4948389;29;20861;-71
2022/09/07 14:20:52;;;;;;;4.35;1.60;;;;;;;;;;4936619;28;20289;-71
2022/09/07 14:23:20;;;;;;;5.75;1.77;;;;;;;;;;4950269;29;20399;-73
2022/09/07 14:25:46;;;;;;;4.97;1.90;;;;;;;;;;4945488;28;20142;-70
2022/09/07 14:28:29;;;;;;;7.85;2.70;;;;;;;;;;4949167;28;20134;-70
2022/09/07 14:30:55;;;;;;;7.45;2.15;;;;;;;;;;4945837;29;20075;-70
2022/09/07 14:33:21;;;;;;;6.28;1.85;;;;;;;;;;4953700;28;20089;-70
2022/09/07 14:35:48;;;;;;;9.55;1.92;;;;;;;;;;4946086;29;20134;-73
2022/09/07 14:38:23;;;;;;;5.32;1.73;;;;;;;;;;4949347;29;20089;-71
2022/09/07 14:40:58;;;;;;;7.53;1.88;;;;;;;;;;4950877;29;20057;-71
2022/09/07 14:43:36;;;;;;;8.07;2.00;;;;;;;;;;4943642;28;20138;-71
2022/09/07 14:46:30;;;;;;;7.15;1.90;;;;;;;;;;4948783;29;20065;-62
2022/09/07 14:48:58;;;;;;;10.77;1.95;;;;;;;;;;4948007;28;20058;-66
2022/09/07 14:51:29;;;;;;;5.88;2.05;;;;;;;;;;4963037;28;20133;-65
2022/09/07 14:53:58;;;;;;;3.90;1.73;;;;;;;;;;4944330;28;20047;-66
2022/09/07 14:56:33;;;;;;;8.07;2.15;;;;;;;;;;4951899;29;20406;-69
2022/09/07 14:58:59;;;;;;;5.10;1.58;;;;;;;;;;4944561;28;20123;-68
2022/09/07 15:01:26;;;;;;;7.55;1.70;;;;;;;;;;4947614;28;20196;-70
2022/09/07 15:03:55;;;;;;;9.05;2.15;;;;;;;;;;4942116;28;20051;-69
2022/09/07 15:06:40;;;;;;;9.40;2.42;;;;;;;;;;4949884;28;20055;-66
2022/09/07 15:09:26;;;;;;;7.35;2.40;;;;;;;;;;4946742;28;20048;-68
2022/09/07 15:12:03;;;;;;;16.27;3.15;;;;;;;;;;4946887;29;20488;-67
2022/09/07 15:14:29;;;;;;;14.93;3.35;;;;;;;;;;4949680;28;20047;-72